createdAt,value
2018-01-24T00:00:17.001Z,101440.11
2018-01-24T00:02:45.323Z,101431.94
2018-01-24T00:05:13.890Z,101433.55
2018-01-24T00:07:42.176Z,101434.13
2018-01-24T00:10:15.047Z,101441.43
2018-01-24T00:12:43.575Z,101439.67
2018-01-24T00:15:13.572Z,101437.99
2018-01-24T00:17:41.883Z,101439.39
2018-01-24T00:20:17.123Z,101440.06
2018-01-24T00:22:45.413Z,101433.98
2018-01-24T00:25:13.715Z,101437.95
2018-01-24T00:27:42.664Z,101438.24
2018-01-24T00:30:14.784Z,101440.24
2018-01-24T00:32:43.082Z,101429.64
2018-01-24T00:35:15.009Z,101443.39
2018-01-24T00:37:43.275Z,101441.53
2018-01-24T00:40:14.627Z,101446.51
2018-01-24T00:42:42.901Z,101447.77
2018-01-24T00:45:14.356Z,101451.45
2018-01-24T00:47:42.650Z,101452.23
2018-01-24T00:50:14.920Z,101452.84
2018-01-24T00:52:43.173Z,101450.16
2018-01-24T00:55:14.840Z,101445.07
2018-01-24T00:57:43.224Z,101443.39
2018-01-24T01:00:15.271Z,101448.76
2018-01-24T01:02:47.729Z,101452.80
2018-01-24T01:05:16.026Z,101437.98
2018-01-24T01:07:45.531Z,101432.31
2018-01-24T01:10:13.838Z,101436.79
2018-01-24T01:12:42.120Z,101439.30
2018-01-24T01:15:16.128Z,101426.95
2018-01-24T01:17:44.404Z,101426.34
2018-01-24T01:20:13.712Z,101432.25
2018-01-24T01:22:42.001Z,101433.98
2018-01-24T01:25:13.552Z,101432.48
2018-01-24T01:27:41.860Z,101433.04
2018-01-24T01:30:16.926Z,101431.71
2018-01-24T01:32:45.509Z,101441.53
2018-01-24T01:35:13.824Z,101436.53
2018-01-24T01:37:42.116Z,101433.45
2018-01-24T01:40:16.133Z,101431.88
2018-01-24T01:42:44.416Z,101431.66
2018-01-24T01:45:13.733Z,101417.25
2018-01-24T01:47:42.212Z,101414.83
2018-01-24T01:50:13.608Z,101410.64
2018-01-24T01:52:41.920Z,101396.66
2018-01-24T01:55:13.964Z,101396.34
2018-01-24T01:57:42.306Z,101399.90
2018-01-24T02:00:14.017Z,101392.80
2018-01-24T02:02:42.559Z,101386.90
2018-01-24T02:05:14.251Z,101389.05
2018-01-24T02:07:42.562Z,101393.09
2018-01-24T02:10:14.560Z,101391.64
2018-01-24T02:12:43.532Z,101387.84
2018-01-24T02:15:13.529Z,101396.89
2018-01-24T02:17:41.835Z,101391.03
2018-01-24T02:20:13.485Z,101386.90
2018-01-24T02:22:41.761Z,101385.44
2018-01-24T02:25:16.723Z,101384.95
2018-01-24T02:27:45.005Z,101381.77
2018-01-24T02:30:14.911Z,101387.50
2018-01-24T02:32:43.210Z,101382.00
2018-01-24T02:35:15.180Z,101382.42
2018-01-24T02:37:43.497Z,101386.34
2018-01-24T02:40:15.508Z,101376.96
2018-01-24T02:42:43.816Z,101375.75
2018-01-24T02:45:13.948Z,101376.78
2018-01-24T02:47:42.464Z,101375.44
2018-01-24T02:50:14.656Z,101375.73
2018-01-24T02:52:43.777Z,101374.97
2018-01-24T02:55:16.258Z,101377.30
2018-01-24T02:57:44.551Z,101371.78
2018-01-24T03:00:13.866Z,101369.66
2018-01-24T03:02:42.229Z,101369.00
2018-01-24T03:05:14.227Z,101369.42
2018-01-24T03:07:43.053Z,101365.44
2018-01-24T03:10:14.913Z,101362.17
2018-01-24T03:12:43.293Z,101365.31
2018-01-24T03:15:15.268Z,101363.19
2018-01-24T03:17:44.153Z,101362.05
2018-01-24T03:20:15.540Z,101359.78
2018-01-24T03:22:43.830Z,101361.94
2018-01-24T03:25:12.735Z,101359.36
2018-01-24T03:27:41.004Z,101365.31
2018-01-24T03:30:16.208Z,101367.54
2018-01-24T03:32:44.492Z,101361.08
2018-01-24T03:35:12.780Z,101368.25
2018-01-24T03:37:42.033Z,101357.05
2018-01-24T03:40:13.581Z,101350.17
2018-01-24T03:42:41.858Z,101340.84
2018-01-24T03:45:13.934Z,101349.39
2018-01-24T03:47:42.481Z,101351.73
2018-01-24T03:50:14.452Z,101345.30
2018-01-24T03:52:42.770Z,101349.74
2018-01-24T03:55:14.262Z,101346.87
2018-01-24T03:57:42.554Z,101347.45
2018-01-24T04:00:12.604Z,101340.54
2018-01-24T04:02:41.077Z,101350.84
2018-01-24T04:05:16.575Z,101345.56
2018-01-24T04:07:44.851Z,101348.83
2018-01-24T04:10:13.118Z,101350.47
2018-01-24T04:12:41.403Z,101346.23
2018-01-24T04:15:13.832Z,101344.09
2018-01-24T04:17:42.130Z,101338.70
2018-01-24T04:20:13.838Z,101347.91
2018-01-24T04:22:42.135Z,101337.21
2018-01-24T04:25:14.025Z,101334.91
2018-01-24T04:27:42.477Z,101335.81
2018-01-24T04:30:14.316Z,101330.95
2018-01-24T04:32:42.617Z,101313.02
2018-01-24T04:35:15.780Z,101336.11
2018-01-24T04:37:44.560Z,101340.98
2018-01-24T04:40:12.861Z,101341.38
2018-01-24T04:42:41.152Z,101340.03
2018-01-24T04:45:15.369Z,101342.08
2018-01-24T04:47:43.637Z,101343.34
2018-01-24T04:50:13.067Z,101343.84
2018-01-24T04:52:41.358Z,101344.12
2018-01-24T04:55:13.461Z,101339.67
2018-01-24T04:57:41.828Z,101342.91
2018-01-24T05:00:13.757Z,101341.70
2018-01-24T05:02:42.812Z,101346.06
2018-01-24T05:05:12.713Z,101346.06
2018-01-24T05:07:41.000Z,101347.93
2018-01-24T05:10:16.010Z,101344.08
2018-01-24T05:12:44.423Z,101343.15
2018-01-24T05:15:13.729Z,101344.63
2018-01-24T05:17:42.025Z,101340.30
2018-01-24T05:20:14.041Z,101333.14
2018-01-24T05:22:42.630Z,101325.91
2018-01-24T05:25:14.539Z,101334.19
2018-01-24T05:27:42.833Z,101338.71
2018-01-24T05:30:15.801Z,101339.63
2018-01-24T05:32:44.112Z,101337.33
2018-01-24T05:35:13.630Z,101348.25
2018-01-24T05:37:41.929Z,101342.78
2018-01-24T05:40:14.148Z,101340.95
2018-01-24T05:42:42.525Z,101339.20
2018-01-24T05:45:14.684Z,101336.00
2018-01-24T05:47:43.392Z,101337.00
2018-01-24T05:50:12.847Z,101342.09
2018-01-24T05:52:41.149Z,101333.89
2018-01-24T05:55:16.187Z,101335.47
2018-01-24T05:57:46.042Z,101340.98
2018-01-24T06:00:15.021Z,101340.98
2018-01-24T06:02:44.375Z,101341.19
2018-01-24T06:05:12.919Z,101329.91
2018-01-24T06:07:41.809Z,101328.64
2018-01-24T06:10:13.340Z,101330.58
2018-01-24T06:12:41.605Z,101322.59
2018-01-24T06:15:14.259Z,101323.77
2018-01-24T06:17:43.026Z,101318.63
2018-01-24T06:20:12.724Z,101313.00
2018-01-24T06:22:41.010Z,101321.53
2018-01-24T06:25:12.548Z,101315.97
2018-01-24T06:27:40.863Z,101318.73
2018-01-24T06:30:13.524Z,101317.67
2018-01-24T06:32:42.101Z,101312.84
2018-01-24T06:35:14.420Z,101305.01
2018-01-24T06:37:43.288Z,101309.36
2018-01-24T06:40:14.816Z,101307.39
2018-01-24T06:42:43.288Z,101314.61
2018-01-24T06:45:13.103Z,101311.95
2018-01-24T06:47:41.613Z,101310.64
2018-01-24T06:50:13.496Z,101309.31
2018-01-24T06:52:41.780Z,101308.31
2018-01-24T06:55:12.705Z,101300.12
2018-01-24T06:57:40.996Z,101299.20
2018-01-24T07:00:16.272Z,101305.09
2018-01-24T07:02:44.552Z,101297.80
2018-01-24T07:05:12.824Z,101294.87
2018-01-24T07:07:41.268Z,101292.69
2018-01-24T07:10:12.673Z,101300.64
2018-01-24T07:12:52.774Z,101302.28
2018-01-24T07:15:21.890Z,101305.52
2018-01-24T07:17:50.173Z,101312.89
2018-01-24T07:20:18.449Z,101317.53
2018-01-24T07:22:46.731Z,101310.83
2018-01-24T07:25:15.212Z,101312.52
2018-01-24T07:27:43.496Z,101312.72
2018-01-24T07:30:13.443Z,101314.05
2018-01-24T07:32:41.720Z,101316.38
2018-01-24T07:35:13.805Z,101309.32
2018-01-24T07:37:42.187Z,101311.98
2018-01-24T07:40:14.192Z,101313.83
2018-01-24T07:42:42.485Z,101322.38
2018-01-24T07:45:14.609Z,101320.50
2018-01-24T07:47:42.938Z,101312.54
2018-01-24T07:50:12.980Z,101307.35
2018-01-24T07:52:41.380Z,101300.29
2018-01-24T07:55:13.422Z,101305.67
2018-01-24T07:57:42.059Z,101297.55
2018-01-24T08:00:12.744Z,101294.47
2018-01-24T08:02:41.023Z,101296.73
2018-01-24T08:05:14.194Z,101290.38
2018-01-24T08:07:42.459Z,101291.03
2018-01-24T08:10:14.395Z,101288.02
2018-01-24T08:12:42.668Z,101288.56
2018-01-24T08:15:12.731Z,101286.30
2018-01-24T08:17:41.008Z,101276.52
2018-01-24T08:20:12.549Z,101273.13
2018-01-24T08:22:40.816Z,101268.04
2018-01-24T08:25:12.158Z,101262.91
2018-01-24T08:27:40.435Z,101263.28
2018-01-24T08:30:15.025Z,101269.25
2018-01-24T08:32:43.357Z,101272.38
2018-01-24T08:35:13.074Z,101259.83
2018-01-24T08:37:41.635Z,101268.89
2018-01-24T08:40:13.555Z,101262.98
2018-01-24T08:42:41.862Z,101257.49
2018-01-24T08:45:14.010Z,101259.92
2018-01-24T08:47:42.311Z,101248.41
2018-01-24T08:50:14.824Z,101255.44
2018-01-24T08:52:43.434Z,101262.35
2018-01-24T08:55:12.942Z,101258.68
2018-01-24T08:57:41.243Z,101253.16
2018-01-24T09:00:12.696Z,101258.97
2018-01-24T09:02:40.991Z,101234.08
2018-01-24T09:05:12.439Z,101225.19
2018-01-24T09:07:40.717Z,101227.94
2018-01-24T09:10:12.230Z,101227.23
2018-01-24T09:12:40.527Z,101221.00
2018-01-24T09:15:12.457Z,101218.31
2018-01-24T09:17:40.991Z,101214.56
2018-01-24T09:20:12.473Z,101210.97
2018-01-24T09:22:40.764Z,101217.80
2018-01-24T09:25:15.788Z,101217.88
2018-01-24T09:27:44.063Z,101207.33
2018-01-24T09:30:12.989Z,101198.38
2018-01-24T09:32:41.292Z,101199.26
2018-01-24T09:35:12.808Z,101209.41
2018-01-24T09:37:41.076Z,101216.50
2018-01-24T09:40:14.109Z,101204.41
2018-01-24T09:42:42.383Z,101198.77
2018-01-24T09:45:13.911Z,101211.69
2018-01-24T09:47:42.198Z,101220.48
2018-01-24T09:50:13.419Z,101210.52
2018-01-24T09:52:41.711Z,101216.36
2018-01-24T09:55:13.752Z,101203.30
2018-01-24T09:57:42.028Z,101218.81
2018-01-24T10:00:14.833Z,101215.33
2018-01-24T10:02:43.097Z,101217.08
2018-01-24T10:05:13.218Z,101213.94
2018-01-24T10:07:41.800Z,101208.70
2018-01-24T10:10:13.647Z,101198.66
2018-01-24T10:12:41.923Z,101202.56
2018-01-24T10:15:14.324Z,101213.22
2018-01-24T10:17:42.626Z,101215.59
2018-01-24T10:20:14.528Z,101218.11
2018-01-24T10:22:42.888Z,101214.92
2018-01-24T10:25:12.892Z,101203.22
2018-01-24T10:27:41.308Z,101202.16
2018-01-24T10:30:13.427Z,101206.91
2018-01-24T10:32:41.748Z,101204.19
2018-01-24T10:35:13.734Z,101199.44
2018-01-24T10:37:42.021Z,101206.80
2018-01-24T10:40:14.122Z,101187.16
2018-01-24T10:42:42.346Z,101188.80
2018-01-24T10:45:14.273Z,101180.22
2018-01-24T10:47:42.623Z,101170.34
2018-01-24T10:50:14.840Z,101176.70
2018-01-24T10:52:43.121Z,101178.17
2018-01-24T10:55:13.436Z,101178.88
2018-01-24T10:57:42.372Z,101166.34
2018-01-24T11:00:14.547Z,101172.72
2018-01-24T11:02:42.815Z,101163.26
2018-01-24T11:05:15.094Z,101170.92
2018-01-24T11:07:43.321Z,101162.19
2018-01-24T11:10:13.244Z,101157.94
2018-01-24T11:12:41.517Z,101151.89
2018-01-24T11:15:12.830Z,101145.86
2018-01-24T11:17:41.224Z,101148.64
2018-01-24T11:20:16.368Z,101136.26
2018-01-24T11:22:44.812Z,101127.01
2018-01-24T11:25:13.763Z,101117.06
2018-01-24T11:27:42.060Z,101110.68
2018-01-24T11:30:12.811Z,101107.53
2018-01-24T11:32:41.877Z,101107.38
2018-01-24T11:35:13.690Z,101114.17
2018-01-24T11:37:41.984Z,101110.14
2018-01-24T11:40:12.960Z,101109.09
2018-01-24T11:42:41.936Z,101100.81
2018-01-24T11:45:13.731Z,101097.91
2018-01-24T11:47:42.131Z,101096.70
2018-01-24T11:50:14.771Z,101096.16
2018-01-24T11:52:43.069Z,101087.16
2018-01-24T11:55:13.248Z,101079.47
2018-01-24T11:57:41.578Z,101075.76
2018-01-24T12:00:12.918Z,101076.12
2018-01-24T12:02:41.437Z,101057.59
2018-01-24T12:05:12.825Z,101056.97
2018-01-24T12:07:41.100Z,101054.30
2018-01-24T12:10:16.316Z,101041.75
2018-01-24T12:12:44.592Z,101032.52
2018-01-24T12:15:12.899Z,101030.10
2018-01-24T12:17:41.177Z,101036.73
2018-01-24T12:20:13.759Z,101035.03
2018-01-24T12:22:42.439Z,101022.29
2018-01-24T12:25:14.444Z,101014.02
2018-01-24T12:27:42.841Z,101005.59
2018-01-24T12:30:14.093Z,101009.22
2018-01-24T12:32:42.376Z,101012.45
2018-01-24T12:35:14.124Z,101012.63
2018-01-24T12:37:42.408Z,101002.13
2018-01-24T12:40:14.504Z,100997.23
2018-01-24T12:42:42.782Z,101000.27
2018-01-24T12:45:12.728Z,100980.07
2018-01-24T12:47:41.187Z,100979.70
2018-01-24T12:50:13.750Z,100963.67
2018-01-24T12:52:42.045Z,100962.75
2018-01-24T12:55:13.768Z,100957.61
2018-01-24T12:57:42.048Z,100957.55
2018-01-24T13:00:13.859Z,100942.80
2018-01-24T13:02:42.162Z,100944.52
2018-01-24T13:05:14.208Z,100940.75
2018-01-24T13:07:42.504Z,100929.68
2018-01-24T13:10:14.823Z,100923.78
2018-01-24T13:12:43.571Z,100921.83
2018-01-24T13:15:13.702Z,100908.50
2018-01-24T13:17:41.973Z,100917.01
2018-01-24T13:20:13.469Z,100909.86
2018-01-24T13:22:41.767Z,100914.77
2018-01-24T13:25:12.956Z,100899.39
2018-01-24T13:27:41.357Z,100891.97
2018-01-24T13:30:12.840Z,100885.34
2018-01-24T13:32:41.138Z,100889.59
2018-01-24T13:35:16.278Z,100893.83
2018-01-24T13:37:44.575Z,100898.63
2018-01-24T13:40:12.968Z,100885.27
2018-01-24T13:42:41.786Z,100880.73
2018-01-24T13:45:14.645Z,100883.69
2018-01-24T13:47:44.602Z,100873.54
2018-01-24T13:50:14.175Z,100872.41
2018-01-24T13:52:42.462Z,100873.78
2018-01-24T13:55:14.486Z,100869.59
2018-01-24T13:57:42.814Z,100865.98
2018-01-24T14:00:14.336Z,100867.83
2018-01-24T14:02:44.018Z,100857.41
2018-01-24T14:05:15.117Z,100862.41
2018-01-24T14:07:44.645Z,100856.50
2018-01-24T14:10:14.892Z,100853.02
2018-01-24T14:12:47.850Z,100857.94
2018-01-24T14:15:18.434Z,100845.03
2018-01-24T14:17:46.727Z,100851.78
2018-01-24T14:20:15.034Z,100852.08
2018-01-24T14:22:43.304Z,100855.27
2018-01-24T14:25:13.448Z,100858.45
2018-01-24T14:27:41.750Z,100859.49
2018-01-24T14:30:13.573Z,100859.02
2018-01-24T14:32:41.840Z,100860.34
2018-01-24T14:35:14.004Z,100845.11
2018-01-24T14:37:42.300Z,100847.92
2018-01-24T14:40:14.360Z,100848.11
2018-01-24T14:42:43.884Z,100849.48
2018-01-24T14:45:12.876Z,100827.61
2018-01-24T14:47:42.060Z,100837.48
2018-01-24T14:50:13.092Z,100840.72
2018-01-24T14:52:41.734Z,100829.41
2018-01-24T14:55:12.814Z,100840.20
2018-01-24T14:57:41.109Z,100841.44
2018-01-24T15:00:13.132Z,100840.39
2018-01-24T15:02:41.430Z,100857.85
2018-01-24T15:05:13.806Z,100838.53
2018-01-24T15:07:42.080Z,100831.36
2018-01-24T15:10:13.841Z,100837.47
2018-01-24T15:12:43.128Z,100830.67
2018-01-24T15:15:15.275Z,100829.20
2018-01-24T15:17:43.562Z,100819.58
2018-01-24T15:20:13.187Z,100808.70
2018-01-24T15:22:41.519Z,100816.30
2018-01-24T15:25:13.118Z,100819.02
2018-01-24T15:27:41.945Z,100819.86
2018-01-24T15:30:13.193Z,100817.68
2018-01-24T15:32:42.047Z,100810.16
2018-01-24T15:35:14.106Z,100808.02
2018-01-24T15:37:42.349Z,100806.50
2018-01-24T15:40:14.070Z,100801.37
2018-01-24T15:42:42.320Z,100795.27
2018-01-24T15:45:13.580Z,100804.58
2018-01-24T15:47:42.065Z,100779.07
2018-01-24T15:50:13.459Z,100803.18
2018-01-24T15:52:41.785Z,100800.98
2018-01-24T15:55:13.853Z,100803.06
2018-01-24T15:57:42.136Z,100800.59
2018-01-24T16:00:14.099Z,100802.31
2018-01-24T16:05:17.483Z,100814.90
2018-01-24T16:07:45.793Z,100815.29
2018-01-24T16:10:14.092Z,100810.48
2018-01-24T16:12:42.409Z,100817.89
2018-01-24T16:15:13.548Z,100805.77
2018-01-24T16:17:41.838Z,100803.20
2018-01-24T16:20:13.542Z,100809.19
2018-01-24T16:22:41.859Z,100802.56
2018-01-24T16:25:14.001Z,100797.24
2018-01-24T16:27:42.302Z,100796.48
2018-01-24T16:30:14.286Z,100789.08
2018-01-24T16:32:42.882Z,100785.49
2018-01-24T16:35:12.874Z,100787.36
2018-01-24T16:37:41.722Z,100791.79
2018-01-24T16:40:12.901Z,100787.64
2018-01-24T16:42:41.245Z,100796.33
2018-01-24T16:45:13.318Z,100793.39
2018-01-24T16:47:41.620Z,100788.16
2018-01-24T16:50:13.304Z,100793.75
2018-01-24T16:52:41.569Z,100810.48
2018-01-24T16:55:13.832Z,100788.80
2018-01-24T16:57:42.112Z,100787.56
2018-01-24T17:00:12.880Z,100772.20
2018-01-24T17:02:41.192Z,100790.07
2018-01-24T17:05:13.544Z,100775.77
2018-01-24T17:07:41.836Z,100787.50
2018-01-24T17:10:13.822Z,100785.67
2018-01-24T17:12:42.103Z,100777.58
2018-01-24T17:15:14.142Z,100777.20
2018-01-24T17:17:42.422Z,100794.56
2018-01-24T17:20:13.664Z,100798.02
2018-01-24T17:22:41.960Z,100793.89
2018-01-24T17:25:12.837Z,100790.80
2018-01-24T17:27:41.321Z,100790.55
2018-01-24T17:30:13.520Z,100792.68
2018-01-24T17:32:41.844Z,100790.73
2018-01-24T17:35:13.092Z,100792.87
2018-01-24T17:37:41.406Z,100785.19
2018-01-24T17:40:12.748Z,100790.96
2018-01-24T17:42:41.062Z,100791.10
2018-01-24T17:45:15.999Z,100783.77
2018-01-24T17:47:44.457Z,100795.95
2018-01-24T17:50:13.453Z,100780.98
2018-01-24T17:52:41.753Z,100772.80
2018-01-24T17:55:13.882Z,100776.32
2018-01-24T17:57:42.362Z,100774.88
2018-01-24T18:00:14.868Z,100765.38
2018-01-24T18:02:43.173Z,100765.38
2018-01-24T18:05:14.779Z,100768.55
2018-01-24T18:07:43.072Z,100766.17
2018-01-24T18:10:12.862Z,100770.36
2018-01-24T18:12:41.318Z,100765.08
2018-01-24T18:15:16.807Z,100743.27
2018-01-24T18:17:45.307Z,100768.55
2018-01-24T18:20:13.561Z,100764.88
2018-01-24T18:22:41.844Z,100765.78
2018-01-24T18:25:13.723Z,100753.59
2018-01-24T18:27:42.243Z,100756.28
2018-01-24T18:30:14.655Z,100751.47
2018-01-24T18:32:42.946Z,100751.61
2018-01-24T18:35:12.909Z,100750.42
2018-01-24T18:37:41.184Z,100747.37
2018-01-24T18:40:12.688Z,100746.28
2018-01-24T18:42:40.980Z,100731.56
2018-01-24T18:45:12.462Z,100728.76
2018-01-24T18:47:40.764Z,100729.27
2018-01-24T18:50:15.853Z,100733.07
2018-01-24T18:52:44.148Z,100734.12
2018-01-24T18:55:12.669Z,100732.77
2018-01-24T18:57:41.498Z,100729.34
2018-01-24T19:00:13.294Z,100723.60
2018-01-24T19:02:41.581Z,100722.52
2018-01-24T19:05:12.790Z,100721.19
2018-01-24T19:07:41.657Z,100712.24
2018-01-24T19:10:13.427Z,100714.86
2018-01-24T19:12:42.265Z,100708.20
2018-01-24T19:15:12.348Z,100692.77
2018-01-24T19:17:41.270Z,100689.58
2018-01-24T19:20:12.824Z,100683.43
2018-01-24T19:22:41.095Z,100682.19
2018-01-24T19:25:11.893Z,100682.52
2018-01-24T19:27:40.176Z,100671.39
2018-01-24T19:30:12.020Z,100677.24
2018-01-24T19:32:40.965Z,100677.42
2018-01-24T19:35:12.171Z,100682.63
2018-01-24T19:37:40.441Z,100674.11
2018-01-24T19:40:12.600Z,100683.34
2018-01-24T19:42:40.876Z,100670.86
2018-01-24T19:45:11.957Z,100686.39
2018-01-24T19:47:40.233Z,100670.12
2018-01-24T19:50:11.869Z,100673.23
2018-01-24T19:52:40.146Z,100659.12
2018-01-24T19:55:13.267Z,100656.84
2018-01-24T19:57:42.414Z,100655.27
2018-01-24T20:00:13.887Z,100656.11
2018-01-24T20:02:42.167Z,100656.18
2018-01-24T20:05:12.187Z,100671.95
2018-01-24T20:07:40.624Z,100669.19
2018-01-24T20:10:12.076Z,100666.29
2018-01-24T20:12:40.423Z,100660.58
2018-01-24T20:15:14.128Z,100660.19
2018-01-24T20:17:43.094Z,100668.30
2018-01-24T20:20:12.373Z,100665.88
2018-01-24T20:22:40.772Z,100671.31
2018-01-24T20:25:12.789Z,100678.13
2018-01-24T20:27:41.126Z,100679.77
2018-01-24T20:30:13.178Z,100675.13
2018-01-24T20:32:41.481Z,100679.80
2018-01-24T20:35:13.629Z,100699.86
2018-01-24T20:37:41.901Z,100668.46
2018-01-24T20:40:12.057Z,100665.83
2018-01-24T20:42:40.348Z,100665.31
2018-01-24T20:45:15.384Z,100659.47
2018-01-24T20:47:43.718Z,100656.92
2018-01-24T20:50:12.021Z,100648.16
2018-01-24T20:52:40.342Z,100659.33
2018-01-24T20:55:11.904Z,100656.11
2018-01-24T20:57:40.189Z,100654.83
2018-01-24T21:00:11.636Z,100656.25
2018-01-24T21:02:39.925Z,100660.63
2018-01-24T21:05:11.793Z,100662.41
2018-01-24T21:07:40.084Z,100673.08
2018-01-24T21:10:15.283Z,100671.45
2018-01-24T21:12:43.580Z,100668.72
2018-01-24T21:15:12.609Z,100671.52
2018-01-24T21:17:40.926Z,100663.71
2018-01-24T21:20:13.189Z,100665.47
2018-01-24T21:22:41.495Z,100669.34
2018-01-24T21:25:13.890Z,100663.03
2018-01-24T21:27:42.199Z,100652.83
2018-01-24T21:30:21.898Z,100657.91
2018-01-24T21:33:01.995Z,100659.50
2018-01-24T21:35:42.523Z,100654.61
2018-01-24T21:38:10.836Z,100648.73
2018-01-24T21:40:39.141Z,100649.97
2018-01-24T21:43:07.436Z,100644.23
2018-01-24T21:45:36.496Z,100638.75
2018-01-24T21:48:04.781Z,100631.85
2018-01-24T21:50:33.076Z,100624.45
2018-01-24T21:53:01.376Z,100634.84
2018-01-24T21:55:29.680Z,100626.39
2018-01-24T21:57:57.963Z,100643.58
2018-01-24T22:00:26.265Z,100640.08
2018-01-24T22:02:54.564Z,100638.21
2018-01-24T22:05:22.869Z,100648.02
2018-01-24T22:07:51.154Z,100642.62
2018-01-24T22:10:19.456Z,100627.19
2018-01-24T22:12:47.790Z,100636.34
2018-01-24T22:15:16.086Z,100630.30
2018-01-24T22:17:44.353Z,100628.62
2018-01-24T22:20:12.648Z,100637.03
2018-01-24T22:22:41.522Z,100637.48
2018-01-24T22:25:13.351Z,100637.88
2018-01-24T22:27:41.632Z,100641.46
2018-01-24T22:30:13.740Z,100646.78
2018-01-24T22:32:42.049Z,100635.67
2018-01-24T22:35:12.134Z,100638.83
2018-01-24T22:37:40.448Z,100630.72
2018-01-24T22:40:11.736Z,100632.14
2018-01-24T22:42:40.056Z,100641.23
2018-01-24T22:45:11.323Z,100633.80
2018-01-24T22:47:39.617Z,100643.23
2018-01-24T22:50:14.435Z,100639.91
2018-01-24T22:52:42.759Z,100646.41
2018-01-24T22:55:12.376Z,100644.06
2018-01-24T22:57:40.713Z,100649.72
2018-01-24T23:03:03.957Z,100644.15
2018-01-24T23:05:32.228Z,100647.91
2018-01-24T23:08:00.537Z,100644.37
2018-01-24T23:10:28.816Z,100641.77
2018-01-24T23:12:57.122Z,100642.73
2018-01-24T23:15:25.405Z,100640.30
2018-01-24T23:17:53.736Z,100633.20
2018-01-24T23:20:22.150Z,100638.18
2018-01-24T23:22:50.457Z,100641.41
2018-01-24T23:25:18.778Z,100640.16
2018-01-24T23:27:47.056Z,100638.66
2018-01-24T23:30:15.385Z,100626.23
2018-01-24T23:32:43.669Z,100638.62
2018-01-24T23:35:12.013Z,100636.59
2018-01-24T23:37:40.635Z,100647.73
2018-01-24T23:40:12.662Z,100644.80
2018-01-24T23:42:40.956Z,100630.23
2018-01-24T23:45:12.529Z,100639.05
2018-01-24T23:47:40.825Z,100634.62
2018-01-24T23:50:12.635Z,100634.22
2018-01-24T23:52:40.912Z,100632.60
2018-01-24T23:55:12.832Z,100629.12
2018-01-24T23:57:41.151Z,100632.83
